Time;durP1;ratioP1;P1;durP2;ratioP2;P2;SDS_P1;SDS_P2;PMS_P1;PMS_P2;Temp;Humidity;BMP_temperature;BMP_pressure;BME280_temperature;BME280_humidity;BME280_pressure;Samples;Min_cycle;Max_cycle;Signal;HPM_P1;HPM_P2
2022/08/29 00:01:47;;;;;;;3.30;3.00;;;22.50;79.10;;;;;;5048235;28;20047;-63
2022/08/29 00:04:13;;;;;;;4.10;2.83;;;22.50;78.60;;;;;;5050371;28;20033;-63
2022/08/29 00:06:39;;;;;;;3.50;2.65;;;22.50;78.50;;;;;;5045804;28;20021;-63
2022/08/29 00:09:05;;;;;;;3.20;2.90;;;22.50;78.50;;;;;;5049552;28;20464;-63
2022/08/29 00:11:30;;;;;;;4.35;3.60;;;22.50;78.60;;;;;;5048763;28;20497;-63
2022/08/29 00:13:56;;;;;;;3.53;2.97;;;22.40;78.60;;;;;;5032544;28;20020;-63
2022/08/29 00:16:22;;;;;;;3.97;2.88;;;22.40;78.60;;;;;;5051128;28;20021;-63
2022/08/29 00:18:47;;;;;;;3.22;2.80;;;22.40;78.70;;;;;;5050338;28;20029;-62
2022/08/29 00:21:13;;;;;;;3.80;3.05;;;22.30;78.80;;;;;;5049901;28;20036;-63
2022/08/29 00:23:39;;;;;;;3.40;3.10;;;22.30;79.00;;;;;;5050072;28;20025;-63
2022/08/29 00:26:05;;;;;;;4.35;3.28;;;22.30;79.10;;;;;;5050281;28;20021;-63
2022/08/29 00:28:31;;;;;;;3.85;2.97;;;22.30;79.00;;;;;;5048071;28;20025;-63
2022/08/29 00:30:56;;;;;;;3.28;2.97;;;22.30;79.20;;;;;;5051166;28;20036;-63
2022/08/29 00:33:22;;;;;;;3.97;3.05;;;22.30;79.20;;;;;;5050766;28;20384;-62
2022/08/29 00:35:48;;;;;;;4.63;3.10;;;22.20;79.20;;;;;;5050979;28;20118;-62
2022/08/29 00:38:15;;;;;;;4.97;3.53;;;22.30;79.30;;;;;;5044714;28;20747;-63
2022/08/29 00:40:45;;;;;;;3.97;3.13;;;22.30;79.30;;;;;;5047152;28;20032;-63
2022/08/29 00:43:11;;;;;;;3.78;3.00;;;22.20;79.10;;;;;;5045539;28;20075;-63
2022/08/29 00:46:00;;;;;;;3.63;2.83;;;22.20;79.30;;;;;;5050262;28;20021;-62
2022/08/29 00:48:26;;;;;;;3.65;3.17;;;22.20;79.30;;;;;;5045833;28;20032;-63
2022/08/29 00:50:55;;;;;;;4.20;3.20;;;22.20;79.10;;;;;;5050614;28;20033;-63
2022/08/29 00:53:35;;;;;;;3.53;3.13;;;22.20;79.30;;;;;;5049622;28;20425;-62
2022/08/29 00:56:02;;;;;;;4.07;3.67;;;22.10;79.40;;;;;;5048695;28;20052;-62
2022/08/29 00:58:33;;;;;;;5.05;3.90;;;22.10;79.60;;;;;;5048893;28;20025;-63
2022/08/29 01:00:59;;;;;;;5.75;3.72;;;22.10;80.10;;;;;;5057876;28;20107;-62
2022/08/29 01:03:26;;;;;;;5.03;3.63;;;22.10;80.20;;;;;;5053722;28;20556;-62
2022/08/29 01:05:52;;;;;;;4.68;3.72;;;22.00;80.30;;;;;;5048670;28;20048;-62
2022/08/29 01:08:18;;;;;;;4.20;3.50;;;22.00;80.50;;;;;;5050780;28;20025;-62
2022/08/29 01:13:33;;;;;;;4.30;3.67;;;22.00;80.80;;;;;;5052336;28;20074;-62
2022/08/29 01:16:01;;;;;;;4.97;3.53;;;22.00;81.00;;;;;;5053566;28;20037;-63
2022/08/29 01:18:31;;;;;;;4.30;3.78;;;22.00;81.00;;;;;;5053844;28;20031;-63
2022/08/29 01:21:06;;;;;;;4.60;3.75;;;21.90;81.10;;;;;;5053641;28;20036;-63
2022/08/29 01:23:47;;;;;;;4.10;3.47;;;21.90;81.30;;;;;;5052130;28;20078;-62
2022/08/29 01:26:13;;;;;;;4.55;3.58;;;21.90;81.60;;;;;;5053356;28;20412;-62
2022/08/29 01:28:43;;;;;;;4.60;3.28;;;21.80;81.80;;;;;;5045973;28;20415;-63
2022/08/29 01:31:16;;;;;;;4.53;3.30;;;21.80;82.00;;;;;;5053420;28;20029;-63
2022/08/29 01:33:50;;;;;;;4.35;3.53;;;21.90;82.20;;;;;;5053899;28;20560;-62
2022/08/29 01:36:20;;;;;;;4.80;3.78;;;21.80;82.30;;;;;;5053026;28;20204;-62
2022/08/29 01:38:48;;;;;;;3.67;3.10;;;21.80;82.40;;;;;;5049294;28;20041;-62
2022/08/29 01:41:15;;;;;;;5.47;3.88;;;21.80;82.60;;;;;;5054034;28;20065;-62
2022/08/29 01:43:47;;;;;;;4.28;3.58;;;21.80;82.80;;;;;;5051019;28;20856;-63
2022/08/29 01:46:15;;;;;;;6.80;3.95;;;21.80;83.00;;;;;;5045843;28;20078;-62
2022/08/29 01:48:43;;;;;;;4.75;3.72;;;21.80;83.30;;;;;;5035915;28;20464;-62
2022/08/29 01:51:10;;;;;;;5.70;4.63;;;21.80;83.40;;;;;;5054318;28;20479;-62
2022/08/29 01:53:37;;;;;;;4.57;3.75;;;21.80;83.60;;;;;;5047885;28;20029;-62
2022/08/29 01:56:30;;;;;;;4.70;3.72;;;21.80;83.50;;;;;;5052748;28;20028;-62
2022/08/29 01:58:57;;;;;;;4.05;3.60;;;21.70;83.40;;;;;;5055574;28;20041;-62
2022/08/29 02:01:27;;;;;;;4.80;3.65;;;21.80;83.70;;;;;;5053042;28;20538;-63
2022/08/29 02:03:53;;;;;;;4.38;3.60;;;21.70;83.50;;;;;;5052994;28;20024;-62
2022/08/29 02:06:19;;;;;;;4.65;3.60;;;21.80;83.50;;;;;;5035360;28;20120;-62
2022/08/29 02:08:45;;;;;;;4.95;3.90;;;21.80;83.60;;;;;;5045140;28;20036;-63
2022/08/29 02:11:15;;;;;;;4.72;3.53;;;21.80;83.60;;;;;;5059417;28;20056;-62
2022/08/29 02:13:51;;;;;;;3.67;3.35;;;21.80;83.50;;;;;;5053065;28;20600;-62
2022/08/29 02:16:18;;;;;;;4.10;3.20;;;21.80;83.60;;;;;;5061651;28;20459;-62
2022/08/29 02:18:44;;;;;;;4.35;3.20;;;21.80;83.40;;;;;;5050654;28;20478;-62
2022/08/29 02:21:13;;;;;;;5.55;3.63;;;21.80;83.50;;;;;;5052883;28;20021;-62
2022/08/29 02:23:40;;;;;;;4.53;3.40;;;21.80;83.50;;;;;;5051760;28;20033;-62
2022/08/29 02:26:06;;;;;;;3.95;3.33;;;21.90;83.50;;;;;;5053346;28;20033;-63
2022/08/29 02:28:33;;;;;;;4.95;3.40;;;21.90;83.40;;;;;;5052642;28;20021;-63
2022/08/29 02:30:59;;;;;;;4.25;3.22;;;21.90;83.40;;;;;;5053436;28;20013;-63
2022/08/29 02:33:25;;;;;;;4.32;3.50;;;21.90;83.30;;;;;;5053219;28;20033;-61
2022/08/29 02:35:52;;;;;;;5.88;3.13;;;21.90;83.30;;;;;;5053302;28;20404;-60
2022/08/29 02:38:18;;;;;;;4.82;3.25;;;21.90;83.40;;;;;;5049554;28;20056;-60
2022/08/29 02:40:45;;;;;;;4.25;3.45;;;21.90;83.20;;;;;;5047519;28;20534;-59
2022/08/29 02:43:11;;;;;;;4.32;3.35;;;21.90;83.20;;;;;;5052714;28;20029;-59
2022/08/29 02:45:39;;;;;;;4.03;3.20;;;21.90;83.20;;;;;;5048521;28;20423;-59
2022/08/29 02:48:05;;;;;;;4.97;3.35;;;22.00;83.10;;;;;;5052681;28;20095;-60
2022/08/29 02:50:31;;;;;;;5.90;3.42;;;21.90;83.00;;;;;;5052763;28;20076;-59
2022/08/29 02:52:57;;;;;;;4.00;3.35;;;21.90;82.90;;;;;;5048659;28;20381;-59
2022/08/29 02:55:24;;;;;;;5.28;3.40;;;21.90;82.90;;;;;;5052016;28;20397;-60
2022/08/29 02:57:51;;;;;;;3.95;3.20;;;21.90;82.90;;;;;;5059025;28;20031;-59
2022/08/29 03:00:21;;;;;;;3.95;3.30;;;21.90;82.80;;;;;;5051218;28;20039;-59
2022/08/29 03:02:48;;;;;;;3.63;3.20;;;21.90;82.80;;;;;;5052451;28;20519;-61
2022/08/29 03:05:15;;;;;;;3.83;3.20;;;21.90;82.80;;;;;;5051475;28;20051;-58
2022/08/29 03:07:41;;;;;;;3.70;3.00;;;21.90;82.90;;;;;;5050465;28;20040;-59
2022/08/29 03:10:07;;;;;;;4.32;3.15;;;21.90;82.80;;;;;;5053722;28;20115;-60
2022/08/29 03:12:36;;;;;;;4.50;3.30;;;21.90;82.80;;;;;;5047327;28;20433;-59
2022/08/29 03:15:04;;;;;;;4.97;3.40;;;21.90;82.80;;;;;;5052051;28;20017;-59
2022/08/29 03:17:29;;;;;;;3.45;2.90;;;21.90;82.80;;;;;;5052510;28;20033;-59
2022/08/29 03:19:57;;;;;;;3.85;3.20;;;21.90;82.70;;;;;;5047842;28;20117;-62
2022/08/29 03:22:23;;;;;;;4.45;3.35;;;21.90;82.70;;;;;;5048439;28;20029;-59
2022/08/29 03:24:49;;;;;;;4.78;3.20;;;21.90;83.30;;;;;;5052073;28;20025;-59
2022/08/29 03:27:15;;;;;;;7.13;3.35;;;21.90;82.70;;;;;;5051964;28;20100;-60
2022/08/29 03:29:40;;;;;;;3.65;2.92;;;21.90;82.70;;;;;;5051784;28;20021;-59
2022/08/29 03:32:06;;;;;;;4.85;4.00;;;21.90;82.70;;;;;;5051590;28;20065;-60
2022/08/29 03:34:32;;;;;;;3.78;3.17;;;21.90;82.60;;;;;;5051399;28;20052;-59
2022/08/29 03:36:58;;;;;;;3.35;3.03;;;21.90;82.60;;;;;;5048225;28;20445;-59
2022/08/29 03:39:25;;;;;;;3.83;3.17;;;22.00;82.80;;;;;;5051326;28;20039;-60
2022/08/29 03:41:50;;;;;;;4.55;3.33;;;22.00;82.70;;;;;;5051536;28;20052;-59
2022/08/29 03:44:16;;;;;;;4.03;3.38;;;22.00;82.70;;;;;;5050080;28;20500;-59
2022/08/29 03:46:42;;;;;;;5.28;3.17;;;22.00;82.80;;;;;;5050791;28;20025;-61
2022/08/29 03:49:08;;;;;;;4.45;3.28;;;22.00;82.70;;;;;;5051544;28;20086;-59
2022/08/29 03:51:36;;;;;;;4.78;3.67;;;22.10;82.70;;;;;;5043308;28;20025;-59
2022/08/29 03:54:02;;;;;;;4.32;3.00;;;22.20;82.80;;;;;;5044560;28;20021;-59
2022/08/29 03:56:27;;;;;;;5.53;3.55;;;22.20;82.70;;;;;;5052142;28;20070;-60
2022/08/29 03:58:54;;;;;;;4.70;3.00;;;22.30;82.50;;;;;;5038445;28;20554;-60
2022/08/29 04:01:23;;;;;;;4.75;3.90;;;22.30;82.30;;;;;;5052037;28;20037;-60
2022/08/29 04:03:49;;;;;;;4.70;3.75;;;22.30;82.10;;;;;;5051767;28;20033;-60
2022/08/29 04:06:15;;;;;;;6.75;3.63;;;22.40;82.00;;;;;;5050609;28;20059;-59
2022/08/29 04:08:42;;;;;;;4.57;3.28;;;22.40;82.00;;;;;;5050921;28;20064;-60
2022/08/29 04:11:12;;;;;;;4.55;3.45;;;22.50;81.90;;;;;;5060342;28;20384;-59
2022/08/29 04:13:38;;;;;;;4.75;3.50;;;22.50;81.70;;;;;;5051351;28;20036;-58
2022/08/29 04:16:10;;;;;;;4.93;3.53;;;22.60;81.80;;;;;;5052014;28;20037;-59
2022/08/29 04:18:36;;;;;;;4.43;3.40;;;22.60;81.80;;;;;;5050077;28;20054;-60
2022/08/29 04:21:04;;;;;;;4.47;3.10;;;22.70;81.70;;;;;;5035837;28;20021;-60
2022/08/29 04:23:29;;;;;;;4.25;3.17;;;22.80;81.70;;;;;;5051384;28;20523;-59
2022/08/29 04:25:55;;;;;;;4.25;3.20;;;22.80;81.60;;;;;;5047628;28;20084;-60
2022/08/29 04:28:22;;;;;;;4.70;3.20;;;22.90;81.40;;;;;;5046873;28;20029;-59
2022/08/29 04:30:50;;;;;;;4.53;3.67;;;22.90;81.10;;;;;;5051442;28;20501;-58
2022/08/29 04:33:16;;;;;;;4.43;3.40;;;23.00;80.90;;;;;;5053454;28;20017;-59
2022/08/29 04:35:41;;;;;;;4.07;3.38;;;23.10;80.60;;;;;;5055578;28;20055;-59
2022/08/29 04:38:07;;;;;;;4.18;3.08;;;23.10;80.10;;;;;;5055779;28;20092;-58
2022/08/29 04:40:35;;;;;;;5.35;3.55;;;23.20;80.10;;;;;;5055169;28;20079;-58
2022/08/29 04:43:01;;;;;;;4.50;3.42;;;23.30;79.80;;;;;;5055288;28;20029;-59
2022/08/29 04:45:27;;;;;;;5.18;3.78;;;23.50;79.20;;;;;;5054771;28;20039;-58
2022/08/29 04:47:52;;;;;;;8.45;4.10;;;23.60;78.90;;;;;;5053318;28;20369;-59
2022/08/29 04:50:21;;;;;;;4.55;3.80;;;23.60;78.60;;;;;;5052343;28;20033;-58
2022/08/29 04:52:48;;;;;;;3.95;3.53;;;23.60;78.40;;;;;;5047731;28;20021;-58
2022/08/29 04:55:16;;;;;;;5.70;3.78;;;23.60;78.30;;;;;;5052532;28;20104;-59
2022/08/29 04:57:41;;;;;;;4.85;3.97;;;23.70;78.20;;;;;;5061972;28;20085;-59
2022/08/29 05:00:12;;;;;;;4.93;3.95;;;23.70;78.20;;;;;;5054108;28;20401;-58
2022/08/29 05:02:38;;;;;;;6.03;4.35;;;23.70;78.30;;;;;;5047452;28;20013;-58
2022/08/29 05:05:05;;;;;;;4.60;3.90;;;23.90;78.30;;;;;;5056814;28;20037;-58
2022/08/29 05:07:31;;;;;;;5.40;3.92;;;24.00;77.90;;;;;;5055112;28;20021;-59
2022/08/29 05:10:05;;;;;;;5.35;4.18;;;24.20;77.70;;;;;;5054736;28;20040;-59
2022/08/29 05:12:32;;;;;;;3.95;3.35;;;24.50;77.10;;;;;;5053492;28;20027;-59
2022/08/29 05:14:59;;;;;;;4.40;3.40;;;24.70;76.40;;;;;;5055175;28;20025;-58
2022/08/29 05:17:25;;;;;;;5.72;3.50;;;24.90;76.00;;;;;;5049236;28;20021;-58
2022/08/29 05:19:51;;;;;;;4.88;3.55;;;25.10;75.90;;;;;;5054383;28;20033;-59
2022/08/29 05:22:18;;;;;;;4.65;3.42;;;25.30;75.10;;;;;;5053886;28;20033;-58
2022/08/29 05:24:44;;;;;;;5.32;3.92;;;25.60;74.90;;;;;;5054412;28;20029;-59
2022/08/29 05:27:19;;;;;;;4.82;3.85;;;25.80;74.30;;;;;;5046512;28;20405;-59
2022/08/29 05:29:47;;;;;;;4.18;3.30;;;26.10;73.70;;;;;;5050562;28;20569;-62
2022/08/29 05:32:14;;;;;;;6.47;4.00;;;26.30;72.90;;;;;;5046724;28;20033;-59
2022/08/29 05:34:41;;;;;;;4.18;3.67;;;26.50;72.50;;;;;;5054292;28;20078;-61
2022/08/29 05:37:14;;;;;;;3.80;3.10;;;26.50;71.90;;;;;;5054169;28;20087;-61
2022/08/29 05:39:41;;;;;;;5.75;3.65;;;26.40;71.70;;;;;;5052232;28;20079;-62
2022/08/29 05:42:09;;;;;;;4.97;3.50;;;26.40;71.10;;;;;;5052894;28;20033;-61
2022/08/29 05:44:35;;;;;;;5.18;3.22;;;26.50;70.70;;;;;;5050797;28;20041;-59
2022/08/29 05:47:04;;;;;;;4.00;3.33;;;26.50;70.30;;;;;;5051712;28;20025;-61
2022/08/29 05:49:30;;;;;;;5.85;3.42;;;26.50;69.90;;;;;;5051576;28;20025;-62
2022/08/29 05:51:56;;;;;;;3.83;3.15;;;26.40;69.90;;;;;;5043611;28;20049;-59
2022/08/29 05:54:23;;;;;;;5.88;3.70;;;26.40;70.00;;;;;;5039268;28;20535;-60
2022/08/29 05:56:50;;;;;;;4.05;3.60;;;26.40;70.10;;;;;;5044134;28;20099;-59
2022/08/29 05:59:17;;;;;;;3.83;3.30;;;26.40;70.10;;;;;;5039476;28;20040;-60
2022/08/29 06:01:44;;;;;;;4.45;3.08;;;26.30;69.80;;;;;;5039155;28;20532;-61
2022/08/29 06:04:10;;;;;;;4.55;3.42;;;26.30;70.20;;;;;;5041657;28;20029;-58
2022/08/29 06:06:38;;;;;;;4.80;3.33;;;26.20;70.40;;;;;;5034236;28;20047;-60
2022/08/29 06:09:03;;;;;;;4.10;3.03;;;26.20;70.50;;;;;;5039948;28;20087;-58
2022/08/29 06:11:31;;;;;;;4.00;3.40;;;26.10;70.90;;;;;;5035895;28;20025;-60
2022/08/29 06:13:58;;;;;;;4.93;3.78;;;26.10;70.20;;;;;;5032359;28;20024;-59
2022/08/29 06:16:25;;;;;;;5.28;3.80;;;26.10;70.20;;;;;;5036068;28;20553;-59
2022/08/29 06:18:51;;;;;;;3.88;3.10;;;26.10;70.10;;;;;;5042581;28;20023;-58
2022/08/29 06:21:17;;;;;;;4.22;3.17;;;26.10;69.60;;;;;;5033060;28;20024;-61
2022/08/29 06:23:44;;;;;;;4.18;3.40;;;26.10;69.80;;;;;;5041639;28;20025;-59
2022/08/29 06:26:10;;;;;;;5.25;3.03;;;26.10;69.80;;;;;;5038368;28;20419;-59
2022/08/29 06:28:39;;;;;;;5.03;3.08;;;26.10;69.80;;;;;;5041035;28;20116;-60
2022/08/29 06:31:10;;;;;;;3.47;2.78;;;26.10;69.70;;;;;;5033074;28;20025;-59
2022/08/29 06:33:35;;;;;;;4.35;3.35;;;26.10;69.80;;;;;;5045086;28;20029;-58
2022/08/29 06:36:03;;;;;;;3.97;2.90;;;26.20;69.80;;;;;;5046006;28;20046;-58
2022/08/29 06:38:28;;;;;;;3.33;3.03;;;26.20;69.70;;;;;;5046571;28;20408;-58
2022/08/29 06:40:54;;;;;;;3.90;3.22;;;26.30;69.70;;;;;;5046647;28;20032;-59
2022/08/29 06:43:21;;;;;;;5.07;3.63;;;26.30;69.50;;;;;;5038573;28;20078;-58
2022/08/29 06:45:47;;;;;;;4.43;3.65;;;26.30;69.40;;;;;;5041047;28;20090;-59
2022/08/29 06:48:13;;;;;;;4.45;3.40;;;26.40;69.20;;;;;;5017522;28;20116;-58
2022/08/29 06:50:39;;;;;;;5.80;3.55;;;26.40;69.10;;;;;;5039233;28;20140;-62
2022/08/29 06:53:06;;;;;;;6.53;3.60;;;26.40;68.80;;;;;;5035304;28;20087;-59
2022/08/29 06:55:36;;;;;;;4.63;3.50;;;26.50;68.60;;;;;;5025906;28;20040;-59
2022/08/29 06:58:02;;;;;;;5.55;3.10;;;26.50;68.20;;;;;;5026859;28;20032;-59
2022/08/29 07:00:28;;;;;;;3.97;3.42;;;26.50;67.90;;;;;;5023771;28;20033;-60
2022/08/29 07:02:54;;;;;;;4.45;3.35;;;26.50;67.60;;;;;;5019376;28;20032;-60
2022/08/29 07:05:22;;;;;;;5.80;3.90;;;26.50;66.70;;;;;;5025698;28;20044;-60
2022/08/29 07:07:48;;;;;;;5.20;3.75;;;26.50;66.40;;;;;;5024589;28;20536;-60
2022/08/29 07:10:13;;;;;;;3.92;3.33;;;26.50;66.30;;;;;;5029676;28;20033;-59
2022/08/29 07:12:39;;;;;;;4.00;3.13;;;26.50;66.40;;;;;;5028849;28;20032;-61
2022/08/29 07:15:06;;;;;;;3.35;3.05;;;26.50;66.60;;;;;;5028974;28;20024;-62
2022/08/29 07:17:32;;;;;;;4.15;3.05;;;26.60;66.90;;;;;;5027053;28;20168;-60
2022/08/29 07:19:58;;;;;;;5.72;3.35;;;26.60;66.60;;;;;;5027634;28;20116;-60
2022/08/29 07:22:25;;;;;;;3.92;3.45;;;26.60;66.90;;;;;;5010967;28;20077;-60
2022/08/29 07:24:51;;;;;;;3.97;3.33;;;26.60;67.10;;;;;;5020903;28;20777;-59
2022/08/29 07:27:17;;;;;;;4.97;3.45;;;26.60;67.60;;;;;;5018189;28;20059;-58
2022/08/29 07:29:43;;;;;;;4.07;3.28;;;26.70;67.90;;;;;;5010303;28;20040;-60
2022/08/29 07:32:08;;;;;;;3.53;3.22;;;26.70;68.20;;;;;;5018341;28;20273;-59
2022/08/29 07:34:35;;;;;;;6.03;3.83;;;26.70;67.90;;;;;;5024821;28;20128;-60
2022/08/29 07:37:03;;;;;;;8.48;4.47;;;26.70;67.60;;;;;;5009754;28;20079;-58
2022/08/29 07:39:29;;;;;;;4.72;3.72;;;26.80;67.80;;;;;;5029575;28;20044;-61
2022/08/29 07:41:54;;;;;;;5.40;4.07;;;26.80;67.90;;;;;;5028938;28;20025;-60
2022/08/29 07:44:20;;;;;;;5.13;4.00;;;26.80;68.00;;;;;;5024144;28;20029;-61
2022/08/29 07:46:46;;;;;;;4.75;4.10;;;26.80;68.20;;;;;;5024300;28;20195;-61
2022/08/29 07:49:12;;;;;;;6.20;4.38;;;26.80;68.40;;;;;;5011918;28;20035;-61
2022/08/29 07:51:38;;;;;;;6.30;3.90;;;26.80;68.50;;;;;;5018576;28;20040;-61
2022/08/29 07:54:05;;;;;;;5.10;3.90;;;26.80;68.60;;;;;;5025009;28;20359;-62
2022/08/29 07:56:39;;;;;;;4.20;3.03;;;26.80;68.50;;;;;;5015358;28;20084;-61
2022/08/29 07:59:05;;;;;;;3.85;3.15;;;26.80;68.50;;;;;;4995130;28;20032;-62
2022/08/29 08:01:30;;;;;;;3.10;2.70;;;26.80;68.30;;;;;;5004583;28;20560;-60
2022/08/29 08:03:57;;;;;;;3.42;2.78;;;26.80;68.20;;;;;;5002037;28;20033;-58
2022/08/29 08:06:24;;;;;;;4.55;2.95;;;26.80;68.10;;;;;;5024685;28;20033;-59
2022/08/29 08:08:50;;;;;;;3.92;2.88;;;26.80;68.60;;;;;;5027520;28;20033;-61
2022/08/29 08:11:17;;;;;;;3.75;2.53;;;26.80;67.80;;;;;;5021250;28;20043;-59
2022/08/29 08:13:43;;;;;;;3.90;2.30;;;26.80;67.80;;;;;;5020997;28;20123;-58
2022/08/29 08:16:12;;;;;;;4.15;2.50;;;26.80;68.20;;;;;;5021607;28;20114;-58
2022/08/29 08:18:40;;;;;;;2.65;2.42;;;26.80;67.70;;;;;;5021728;28;20033;-59
2022/08/29 08:21:05;;;;;;;2.55;2.35;;;26.80;67.70;;;;;;5017562;28;20078;-59
2022/08/29 08:23:32;;;;;;;3.15;2.75;;;26.80;67.80;;;;;;5016049;28;20041;-59
2022/08/29 08:25:58;;;;;;;3.38;2.88;;;26.80;67.50;;;;;;5018078;28;20014;-57
2022/08/29 08:28:24;;;;;;;3.22;2.92;;;26.80;67.30;;;;;;5025971;28;20115;-56
2022/08/29 08:30:49;;;;;;;4.85;3.10;;;26.80;67.50;;;;;;5019506;28;20032;-59
2022/08/29 08:33:15;;;;;;;3.85;2.95;;;26.80;67.60;;;;;;5001412;28;20029;-59
2022/08/29 08:35:41;;;;;;;3.05;2.72;;;26.80;67.70;;;;;;5017563;28;20517;-60
2022/08/29 08:38:07;;;;;;;3.63;2.78;;;26.80;67.60;;;;;;5019714;28;20064;-58
2022/08/29 08:40:41;;;;;;;3.50;2.78;;;26.80;67.50;;;;;;5013760;28;20037;-60
2022/08/29 08:43:11;;;;;;;3.75;2.90;;;26.80;67.70;;;;;;5024854;28;20068;-60
2022/08/29 08:45:42;;;;;;;4.20;3.05;;;26.70;67.80;;;;;;5026475;28;20072;-60
2022/08/29 08:48:18;;;;;;;3.70;3.10;;;26.70;68.00;;;;;;5022298;28;20069;-59
2022/08/29 08:51:16;;;;;;;4.20;2.80;;;26.70;68.00;;;;;;5024979;28;20915;-59
2022/08/29 08:53:47;;;;;;;2.80;2.50;;;26.70;68.30;;;;;;5012690;28;20915;-59
2022/08/29 08:56:32;;;;;;;3.15;2.33;;;26.70;68.50;;;;;;5022276;28;20936;-59
2022/08/29 08:59:19;;;;;;;4.88;2.60;;;26.70;68.50;;;;;;4997191;28;20029;-60
2022/08/29 09:02:26;;;;;;;3.38;2.78;;;26.60;68.60;;;;;;5019389;28;20037;-61
2022/08/29 09:04:55;;;;;;;3.88;2.75;;;26.60;68.70;;;;;;4990686;28;20126;-60
2022/08/29 09:07:47;;;;;;;3.78;2.78;;;26.60;68.60;;;;;;5025656;28;21667;-60
2022/08/29 09:10:17;;;;;;;2.92;2.63;;;26.60;68.60;;;;;;5020167;28;20048;-60
2022/08/29 09:13:01;;;;;;;2.85;2.58;;;26.60;68.70;;;;;;5020350;28;21893;-61
2022/08/29 09:15:37;;;;;;;2.70;2.50;;;26.50;68.30;;;;;;5025903;28;20052;-59
2022/08/29 09:18:06;;;;;;;5.72;3.15;;;26.50;68.20;;;;;;5015593;28;20029;-59
2022/08/29 09:20:35;;;;;;;3.33;2.80;;;26.50;68.30;;;;;;5023506;28;20112;-60
2022/08/29 09:23:41;;;;;;;4.07;3.28;;;26.50;68.10;;;;;;5025015;28;20128;-58
2022/08/29 09:26:07;;;;;;;3.55;3.00;;;26.40;68.70;;;;;;5029454;28;20029;-60
2022/08/29 09:28:34;;;;;;;2.88;2.50;;;26.40;68.00;;;;;;5018586;28;20126;-60
2022/08/29 09:31:31;;;;;;;2.85;2.35;;;26.40;68.00;;;;;;5022209;28;20119;-59
2022/08/29 09:34:09;;;;;;;2.85;2.50;;;26.40;67.80;;;;;;5019230;28;20137;-60
2022/08/29 09:36:39;;;;;;;3.38;2.80;;;26.40;67.80;;;;;;5023101;28;20048;-59
2022/08/29 09:39:27;;;;;;;3.20;2.38;;;26.40;67.60;;;;;;5030170;28;20029;-58
2022/08/29 09:42:12;;;;;;;2.80;2.30;;;26.40;67.70;;;;;;5022155;28;20043;-60
2022/08/29 09:44:40;;;;;;;4.40;2.83;;;26.40;67.70;;;;;;5024869;28;20025;-57
2022/08/29 09:47:27;;;;;;;3.33;2.53;;;26.40;67.80;;;;;;5024214;28;20188;-58
2022/08/29 09:50:10;;;;;;;3.40;2.60;;;26.40;67.70;;;;;;5024018;28;20028;-61
2022/08/29 09:52:50;;;;;;;3.22;2.47;;;26.40;67.60;;;;;;5024910;28;20052;-59
2022/08/29 09:55:38;;;;;;;3.38;2.72;;;26.30;67.50;;;;;;5015341;28;20389;-59
2022/08/29 09:58:19;;;;;;;3.45;2.88;;;26.30;67.40;;;;;;5018158;28;20033;-61
2022/08/29 10:01:08;;;;;;;3.70;2.78;;;26.30;67.50;;;;;;5019157;28;20388;-60
2022/08/29 10:03:38;;;;;;;3.60;2.92;;;26.30;67.30;;;;;;5024111;28;22034;-59
2022/08/29 10:06:38;;;;;;;4.43;3.58;;;26.30;67.90;;;;;;5023907;28;20129;-60
2022/08/29 10:09:05;;;;;;;4.13;3.30;;;26.30;67.80;;;;;;5020273;28;20533;-60
2022/08/29 10:11:33;;;;;;;4.10;3.42;;;26.30;67.80;;;;;;5017237;28;20831;-61
2022/08/29 10:14:32;;;;;;;5.40;3.35;;;26.20;67.90;;;;;;5027219;28;20035;-59
2022/08/29 10:20:15;;;;;;;4.18;3.28;;;26.10;68.20;;;;;;5030669;28;20035;-59
2022/08/29 10:22:55;;;;;;;4.78;3.28;;;26.10;68.20;;;;;;5023713;28;20036;-59
2022/08/29 10:25:35;;;;;;;3.83;2.97;;;26.10;68.80;;;;;;5027432;28;20025;-59
2022/08/29 10:28:15;;;;;;;4.30;3.40;;;26.10;68.30;;;;;;5024873;28;20091;-60
2022/08/29 10:31:20;;;;;;;5.22;3.50;;;26.10;68.50;;;;;;5031813;28;20490;-59
2022/08/29 10:33:45;;;;;;;4.25;3.33;;;26.00;68.50;;;;;;4931476;28;20043;-61
2022/08/29 10:36:18;;;;;;;3.75;2.90;;;26.00;68.60;;;;;;4936455;28;20063;-60
2022/08/29 10:39:16;;;;;;;4.50;2.67;;;26.00;68.70;;;;;;4971986;28;20041;-61
2022/08/29 10:42:13;;;;;;;2.97;2.60;;;26.10;69.40;;;;;;5012876;28;20037;-61
2022/08/29 10:45:08;;;;;;;3.92;2.85;;;26.10;68.60;;;;;;5027532;28;20053;-58
2022/08/29 10:47:45;;;;;;;5.00;3.33;;;26.10;68.50;;;;;;5018382;28;20788;-62
2022/08/29 10:50:20;;;;;;;3.53;2.92;;;26.10;68.50;;;;;;5021633;28;20034;-60
2022/08/29 10:53:10;;;;;;;3.35;2.97;;;26.10;68.50;;;;;;5024126;28;20029;-60
2022/08/29 10:55:39;;;;;;;3.08;2.78;;;26.10;68.70;;;;;;5023999;28;20043;-59
2022/08/29 10:58:15;;;;;;;4.80;3.55;;;26.10;69.00;;;;;;5022200;28;20032;-59
2022/08/29 11:01:09;;;;;;;4.05;3.30;;;26.10;69.30;;;;;;5028352;28;20029;-62
2022/08/29 11:03:52;;;;;;;5.25;3.28;;;26.10;69.10;;;;;;5004726;28;20065;-64
2022/08/29 11:06:30;;;;;;;3.65;3.30;;;26.10;69.20;;;;;;4999493;28;20037;-60
2022/08/29 11:09:14;;;;;;;4.22;3.15;;;26.10;69.30;;;;;;5011696;28;20035;-60
2022/08/29 11:11:47;;;;;;;3.20;2.90;;;26.10;69.20;;;;;;5033685;28;20033;-60
2022/08/29 11:14:26;;;;;;;5.15;3.40;;;26.00;69.40;;;;;;5009814;28;20287;-61
2022/08/29 11:16:54;;;;;;;4.32;3.17;;;26.00;68.50;;;;;;5023681;28;20031;-62
2022/08/29 11:19:29;;;;;;;5.03;2.75;;;26.00;68.50;;;;;;5020577;28;20039;-62
2022/08/29 11:21:54;;;;;;;4.35;3.10;;;26.10;68.90;;;;;;5029391;28;20154;-61
2022/08/29 11:24:22;;;;;;;3.45;2.85;;;26.10;68.80;;;;;;5030252;28;20025;-59
2022/08/29 11:27:06;;;;;;;5.53;2.80;;;26.10;68.90;;;;;;5028174;28;20477;-60
2022/08/29 11:30:01;;;;;;;3.53;2.97;;;26.10;68.90;;;;;;5023435;28;20025;-62
2022/08/29 11:32:26;;;;;;;4.40;3.35;;;26.10;68.90;;;;;;5025349;28;20029;-61
2022/08/29 11:35:11;;;;;;;5.03;3.42;;;26.20;69.20;;;;;;5025900;28;20658;-60
2022/08/29 11:38:15;;;;;;;3.88;3.10;;;26.10;69.30;;;;;;5025241;28;20072;-58
2022/08/29 11:41:08;;;;;;;6.75;3.58;;;26.20;69.40;;;;;;5006928;28;20093;-61
2022/08/29 11:43:41;;;;;;;3.28;2.90;;;26.20;69.60;;;;;;5020684;28;20063;-59
2022/08/29 11:46:10;;;;;;;3.75;2.90;;;26.20;69.70;;;;;;5027306;28;20045;-60
2022/08/29 11:48:39;;;;;;;4.32;2.78;;;26.20;69.70;;;;;;5022838;28;20020;-58
2022/08/29 11:51:50;;;;;;;4.90;3.20;;;26.20;69.70;;;;;;5020133;28;20670;-60
2022/08/29 11:54:27;;;;;;;4.13;3.08;;;26.30;69.80;;;;;;5015614;28;20041;-61
2022/08/29 11:56:58;;;;;;;4.38;3.08;;;26.30;69.60;;;;;;5021109;28;20028;-58
2022/08/29 11:59:47;;;;;;;3.95;2.95;;;26.30;69.40;;;;;;5006745;28;20676;-62
2022/08/29 12:02:28;;;;;;;4.90;3.03;;;26.30;69.40;;;;;;5022167;28;20519;-62
2022/08/29 12:05:13;;;;;;;4.22;3.00;;;26.30;69.50;;;;;;5024265;28;20032;-62
2022/08/29 12:07:47;;;;;;;3.88;3.25;;;26.30;69.50;;;;;;5027734;28;20036;-60
2022/08/29 12:10:20;;;;;;;3.88;2.83;;;26.30;69.30;;;;;;5029350;28;20879;-62
2022/08/29 12:13:17;;;;;;;3.05;2.70;;;26.40;69.40;;;;;;5028482;28;20029;-62
2022/08/29 12:15:52;;;;;;;2.80;2.50;;;26.40;69.70;;;;;;4958325;28;20054;-60
2022/08/29 12:18:21;;;;;;;4.63;2.83;;;26.40;69.80;;;;;;5020843;28;20101;-62
2022/08/29 12:20:52;;;;;;;3.65;3.20;;;26.40;69.80;;;;;;5027522;28;20048;-59
2022/08/29 12:23:27;;;;;;;4.93;3.20;;;26.40;69.90;;;;;;5027180;28;20454;-62
2022/08/29 12:26:01;;;;;;;3.97;3.20;;;26.40;70.30;;;;;;5028055;28;20036;-61
2022/08/29 12:28:46;;;;;;;3.70;3.15;;;26.40;70.30;;;;;;5024160;28;20196;-60
2022/08/29 12:31:29;;;;;;;4.68;3.47;;;26.40;70.50;;;;;;5027431;28;20583;-62
2022/08/29 12:34:16;;;;;;;3.97;3.10;;;26.40;70.50;;;;;;5023337;28;20021;-61
2022/08/29 12:36:45;;;;;;;3.75;2.90;;;26.40;70.70;;;;;;5022077;28;20049;-62
2022/08/29 12:39:32;;;;;;;3.70;3.10;;;26.40;70.90;;;;;;5027269;28;20033;-61
2022/08/29 12:42:01;;;;;;;4.18;3.20;;;26.40;71.10;;;;;;5021514;28;20828;-61
2022/08/29 12:44:56;;;;;;;4.55;3.50;;;26.40;71.10;;;;;;5024878;28;20047;-60
2022/08/29 12:47:38;;;;;;;4.50;3.50;;;26.40;71.30;;;;;;5013947;28;23011;-60
2022/08/29 12:50:36;;;;;;;5.25;3.25;;;26.40;71.20;;;;;;5021218;28;20067;-60
2022/08/29 12:53:01;;;;;;;3.80;3.25;;;26.50;71.20;;;;;;4997825;28;20037;-59
2022/08/29 12:55:52;;;;;;;4.45;3.30;;;26.50;70.90;;;;;;5032009;28;20029;-60
2022/08/29 12:58:36;;;;;;;;;;;26.50;70.90;;;;;;5023733;28;20025;-61
2022/08/29 13:01:05;;;;;;;4.25;3.00;;;26.50;70.60;;;;;;5008988;28;19946;-58
2022/08/29 13:03:32;;;;;;;4.15;3.33;;;26.50;70.50;;;;;;5015818;28;20386;-58
2022/08/29 13:06:16;;;;;;;3.60;3.03;;;26.50;70.30;;;;;;5028656;28;20431;-59
2022/08/29 13:08:42;;;;;;;3.47;3.15;;;26.50;70.10;;;;;;5025015;28;20056;-58
2022/08/29 13:11:11;;;;;;;4.60;3.78;;;26.50;70.10;;;;;;5025652;28;20037;-60
2022/08/29 13:13:37;;;;;;;5.30;3.58;;;26.50;69.70;;;;;;5023026;28;20021;-61
2022/08/29 13:16:06;;;;;;;6.72;3.83;;;26.50;69.50;;;;;;5025438;28;20306;-59